Time;durP1;ratioP1;P1;durP2;ratioP2;P2;SDS_P1;SDS_P2;PMS_P1;PMS_P2;Temp;Humidity;BMP_temperature;BMP_pressure;BME280_temperature;BME280_humidity;BME280_pressure;Samples;Min_cycle;Max_cycle;Signal;HPM_P1;HPM_P2
2022/08/03 00:01:00;;;;;;;4.50;4.10;;;20.90;86.80;;;;;;5093973;28;20450;-62
2022/08/03 00:03:27;;;;;;;4.27;3.80;;;20.90;87.50;;;;;;5094893;28;20453;-61
2022/08/03 00:05:54;;;;;;;7.10;3.80;;;20.90;88.20;;;;;;5092213;28;20539;-62
2022/08/03 00:08:23;;;;;;;4.80;3.87;;;20.90;88.80;;;;;;5092081;28;20541;-62
2022/08/03 00:10:50;;;;;;;5.03;4.10;;;20.80;89.40;;;;;;5092717;28;20434;-61
2022/08/03 00:13:18;;;;;;;3.87;3.57;;;20.80;90.00;;;;;;5093275;28;20527;-62
2022/08/03 00:15:45;;;;;;;6.17;4.10;;;20.80;90.20;;;;;;5092951;28;20527;-62
2022/08/03 00:18:13;;;;;;;4.50;4.10;;;20.70;90.40;;;;;;5092532;28;21018;-65
2022/08/03 00:20:40;;;;;;;4.23;3.87;;;20.60;90.60;;;;;;5091746;28;20972;-62
2022/08/03 00:23:07;;;;;;;4.77;4.30;;;20.60;90.80;;;;;;5092777;28;20945;-61
2022/08/03 00:25:36;;;;;;;6.80;3.97;;;20.60;91.00;;;;;;5094623;28;20474;-62
2022/08/03 00:28:04;;;;;;;4.27;3.97;;;20.50;91.20;;;;;;5097088;28;20533;-62
2022/08/03 00:30:32;;;;;;;6.70;4.10;;;20.50;91.40;;;;;;5096991;28;20462;-62
2022/08/03 00:32:59;;;;;;;4.40;4.03;;;20.50;91.60;;;;;;5096960;28;20473;-62
2022/08/03 00:35:27;;;;;;;5.70;4.07;;;20.40;91.80;;;;;;5096327;28;21052;-62
2022/08/03 00:37:54;;;;;;;4.57;4.17;;;20.40;92.00;;;;;;5096934;28;20538;-62
2022/08/03 00:40:21;;;;;;;8.40;4.90;;;20.40;92.10;;;;;;5097339;28;20484;-62
2022/08/03 00:42:52;;;;;;;4.73;4.33;;;20.40;92.20;;;;;;5096548;28;20529;-62
2022/08/03 00:45:21;;;;;;;4.03;3.70;;;20.40;92.30;;;;;;5096876;28;20466;-61
2022/08/03 00:47:48;;;;;;;4.73;4.17;;;20.30;92.30;;;;;;5096332;28;21002;-62
2022/08/03 00:50:16;;;;;;;4.30;3.90;;;20.30;92.40;;;;;;5096495;28;20462;-62
2022/08/03 00:52:44;;;;;;;4.30;3.80;;;20.30;92.60;;;;;;5096406;28;20537;-62
2022/08/03 00:55:11;;;;;;;5.83;4.03;;;20.30;92.70;;;;;;5105349;28;20488;-63
2022/08/03 00:57:39;;;;;;;4.37;3.97;;;20.20;92.80;;;;;;5106592;28;20466;-62
2022/08/03 01:00:10;;;;;;;5.00;4.50;;;20.20;92.90;;;;;;5105248;28;20473;-63
2022/08/03 01:02:39;;;;;;;4.73;4.33;;;20.20;93.10;;;;;;5104583;28;20447;-63
2022/08/03 01:05:07;;;;;;;4.37;4.00;;;20.20;93.30;;;;;;5098271;28;20446;-63
2022/08/03 01:07:47;;;;;;;4.10;3.80;;;20.10;93.40;;;;;;5096059;28;20937;-60
2022/08/03 01:10:28;;;;;;;5.30;4.80;;;20.10;93.60;;;;;;5095837;28;20556;-62
2022/08/03 01:13:03;;;;;;;4.70;4.27;;;20.10;93.70;;;;;;5094368;28;20780;-62
2022/08/03 01:15:40;;;;;;;5.03;4.53;;;20.10;93.80;;;;;;5096121;28;20871;-62
2022/08/03 01:18:14;;;;;;;4.80;4.30;;;20.10;93.90;;;;;;5095850;28;20450;-62
2022/08/03 01:20:45;;;;;;;5.47;4.23;;;20.00;94.00;;;;;;5096017;28;20521;-63
2022/08/03 01:23:51;;;;;;;5.13;4.50;;;20.00;94.20;;;;;;5095991;28;20466;-62
2022/08/03 01:26:42;;;;;;;4.93;3.70;;;20.00;94.20;;;;;;5080241;28;20469;-62
2022/08/03 01:29:42;;;;;;;6.57;4.47;;;19.90;94.30;;;;;;5108502;28;20494;-62
2022/08/03 01:32:15;;;;;;;5.13;4.50;;;19.90;94.50;;;;;;5069570;28;20450;-61
2022/08/03 01:34:46;;;;;;;4.03;3.73;;;19.90;94.60;;;;;;5096007;28;20973;-62
2022/08/03 01:37:16;;;;;;;5.23;4.73;;;19.90;94.70;;;;;;5095099;28;20470;-60
2022/08/03 01:39:45;;;;;;;5.17;4.67;;;19.80;94.80;;;;;;5095428;28;20477;-61
2022/08/03 01:42:14;;;;;;;5.63;4.40;;;19.80;94.90;;;;;;5095080;28;20446;-61
2022/08/03 01:44:44;;;;;;;4.80;4.40;;;19.80;95.10;;;;;;5095458;28;20466;-62
2022/08/03 01:47:14;;;;;;;4.20;3.90;;;19.80;95.20;;;;;;5095529;28;20457;-62
2022/08/03 01:49:44;;;;;;;4.83;4.43;;;19.70;95.30;;;;;;5095677;28;20551;-62
2022/08/03 01:52:12;;;;;;;5.90;3.93;;;19.70;95.40;;;;;;5094766;28;20470;-63
2022/08/03 01:54:44;;;;;;;5.10;4.70;;;19.70;95.50;;;;;;5097875;28;20478;-64
2022/08/03 01:57:13;;;;;;;4.27;3.97;;;19.60;95.60;;;;;;5095487;28;20524;-63
2022/08/03 01:59:42;;;;;;;4.50;4.10;;;19.60;95.70;;;;;;5095274;28;20553;-63
2022/08/03 02:02:13;;;;;;;5.80;4.20;;;19.60;95.80;;;;;;5095229;28;20533;-63
2022/08/03 02:04:42;;;;;;;5.07;4.67;;;19.60;95.90;;;;;;5094685;28;20805;-64
2022/08/03 02:07:10;;;;;;;4.53;4.23;;;19.60;95.90;;;;;;5094940;28;20470;-64
2022/08/03 02:09:39;;;;;;;5.47;4.93;;;19.50;96.00;;;;;;5094800;28;20484;-63
2022/08/03 02:12:09;;;;;;;4.80;4.40;;;19.50;96.10;;;;;;5094587;28;20530;-63
2022/08/03 02:14:37;;;;;;;5.43;4.93;;;19.50;96.20;;;;;;5094452;28;20446;-63
2022/08/03 02:17:06;;;;;;;5.47;4.97;;;19.50;96.20;;;;;;5094801;28;20533;-63
2022/08/03 02:19:36;;;;;;;4.50;4.10;;;19.50;96.30;;;;;;5094988;28;20466;-62
2022/08/03 02:22:05;;;;;;;4.90;4.50;;;19.40;96.30;;;;;;5094800;28;20529;-64
2022/08/03 02:24:33;;;;;;;4.17;3.77;;;19.40;96.30;;;;;;5094688;28;20538;-63
2022/08/03 02:27:01;;;;;;;4.00;3.70;;;19.40;96.30;;;;;;5094612;28;20537;-64
2022/08/03 02:29:34;;;;;;;4.63;4.20;;;19.40;96.40;;;;;;5094846;28;20466;-63
2022/08/03 02:32:03;;;;;;;4.30;3.77;;;19.40;96.30;;;;;;5094199;28;21005;-63
2022/08/03 02:34:33;;;;;;;4.07;3.77;;;19.40;96.40;;;;;;5094868;28;20566;-62
2022/08/03 02:37:04;;;;;;;7.10;4.57;;;19.40;96.40;;;;;;5094921;28;20553;-63
2022/08/03 02:39:34;;;;;;;4.77;4.47;;;19.30;96.40;;;;;;5094621;28;20470;-62
2022/08/03 02:42:02;;;;;;;4.00;3.70;;;19.30;96.40;;;;;;5094437;28;20529;-63
2022/08/03 02:44:32;;;;;;;4.37;4.10;;;19.30;96.40;;;;;;5094178;28;20448;-63
2022/08/03 02:47:04;;;;;;;4.07;3.63;;;19.30;96.40;;;;;;5094630;28;20442;-64
2022/08/03 02:49:33;;;;;;;5.00;4.50;;;19.30;96.40;;;;;;5093306;28;21029;-64
2022/08/03 02:52:03;;;;;;;6.80;4.93;;;19.30;96.50;;;;;;5093609;28;20529;-64
2022/08/03 02:54:32;;;;;;;4.73;4.27;;;19.20;96.50;;;;;;5094905;28;20573;-64
2022/08/03 02:57:01;;;;;;;5.10;4.60;;;19.20;96.60;;;;;;5093978;28;20923;-63
2022/08/03 02:59:31;;;;;;;4.10;3.60;;;19.20;96.60;;;;;;5093954;28;20565;-64
2022/08/03 03:02:00;;;;;;;4.87;4.43;;;19.20;96.70;;;;;;5094180;28;20530;-64
2022/08/03 03:04:29;;;;;;;4.63;4.23;;;19.20;96.60;;;;;;5093717;28;20449;-64
2022/08/03 03:06:58;;;;;;;4.60;4.20;;;19.20;96.70;;;;;;5093845;28;20533;-62
2022/08/03 03:09:27;;;;;;;4.70;4.30;;;19.10;96.60;;;;;;5093783;28;20525;-63
2022/08/03 03:11:54;;;;;;;4.20;3.90;;;19.10;96.70;;;;;;5093244;28;20545;-63
2022/08/03 03:14:23;;;;;;;4.73;3.77;;;19.10;96.70;;;;;;5093541;28;20481;-63
2022/08/03 03:16:52;;;;;;;4.10;3.70;;;19.10;96.70;;;;;;5101050;28;20505;-64
2022/08/03 03:19:21;;;;;;;4.40;4.00;;;19.10;96.70;;;;;;5110870;28;20462;-64
2022/08/03 03:21:50;;;;;;;5.40;4.33;;;19.10;96.70;;;;;;5102840;28;20482;-62
2022/08/03 03:24:17;;;;;;;5.80;4.50;;;19.10;96.70;;;;;;5093684;28;20536;-63
2022/08/03 03:26:46;;;;;;;4.23;3.93;;;19.10;96.70;;;;;;5093492;28;20441;-63
2022/08/03 03:29:14;;;;;;;4.50;4.10;;;19.00;96.70;;;;;;5093106;28;21005;-64
2022/08/03 03:31:41;;;;;;;5.20;4.70;;;19.10;96.70;;;;;;5092986;28;20538;-64
2022/08/03 03:34:08;;;;;;;3.47;3.23;;;19.00;96.60;;;;;;5095594;28;20482;-63
2022/08/03 03:36:36;;;;;;;5.03;3.63;;;19.00;96.60;;;;;;5098459;28;20470;-63
2022/08/03 03:39:04;;;;;;;4.20;3.90;;;19.00;96.60;;;;;;5099562;28;20486;-63
2022/08/03 03:41:31;;;;;;;6.60;4.40;;;19.00;96.60;;;;;;5098186;28;20446;-63
2022/08/03 03:43:59;;;;;;;4.13;3.80;;;19.00;96.60;;;;;;5097608;28;20470;-63
2022/08/03 03:46:27;;;;;;;4.87;4.47;;;19.00;96.70;;;;;;5096058;28;20946;-63
2022/08/03 03:48:54;;;;;;;4.83;4.17;;;19.00;96.70;;;;;;5096500;28;20486;-64
2022/08/03 03:51:21;;;;;;;4.27;3.87;;;18.90;96.60;;;;;;5096144;28;20470;-63
2022/08/03 03:53:56;;;;;;;4.10;3.80;;;18.90;96.70;;;;;;5097365;28;20529;-64
2022/08/03 03:56:23;;;;;;;9.23;3.97;;;19.00;96.70;;;;;;5095667;28;20984;-62
2022/08/03 03:58:51;;;;;;;4.30;3.83;;;18.90;96.60;;;;;;5094336;28;21029;-64
2022/08/03 04:01:20;;;;;;;5.83;4.67;;;18.90;96.90;;;;;;5093132;28;20450;-61
2022/08/03 04:03:47;;;;;;;5.13;3.80;;;19.00;96.70;;;;;;5093828;28;20453;-63
2022/08/03 04:12:54;;;;;;;4.33;4.00;;;19.10;96.50;;;;;;5099890;28;20480;-62
2022/08/03 04:15:23;;;;;;;4.90;4.20;;;19.10;96.50;;;;;;5109009;28;20536;-62
2022/08/03 04:17:53;;;;;;;4.60;4.20;;;19.10;96.40;;;;;;5096884;28;20533;-62
2022/08/03 04:20:23;;;;;;;8.83;3.90;;;19.20;96.40;;;;;;5090454;28;20902;-62
2022/08/03 04:22:53;;;;;;;4.13;3.77;;;19.40;96.40;;;;;;5090273;28;20486;-62
2022/08/03 04:25:25;;;;;;;4.23;3.93;;;19.80;95.90;;;;;;5090529;28;20478;-62
2022/08/03 04:27:54;;;;;;;6.53;3.70;;;20.30;95.00;;;;;;5090549;28;20454;-62
2022/08/03 04:30:22;;;;;;;3.83;3.53;;;20.70;93.90;;;;;;5090956;28;20466;-62
2022/08/03 04:32:51;;;;;;;3.83;2.87;;;21.10;92.60;;;;;;5099928;28;20444;-59
2022/08/03 04:35:19;;;;;;;3.17;2.97;;;21.50;91.50;;;;;;5090597;28;20481;-63
2022/08/03 04:37:49;;;;;;;3.93;3.53;;;21.80;90.30;;;;;;5103837;28;20920;-62
2022/08/03 04:40:23;;;;;;;5.23;3.83;;;22.20;88.30;;;;;;5089804;28;20538;-61
2022/08/03 04:42:51;;;;;;;4.27;3.93;;;22.40;85.80;;;;;;5090053;28;20433;-60
2022/08/03 04:45:21;;;;;;;3.47;3.17;;;22.70;83.70;;;;;;5091327;28;20469;-61
2022/08/03 04:47:49;;;;;;;6.00;3.70;;;23.00;81.80;;;;;;5098304;28;20528;-62
2022/08/03 04:50:17;;;;;;;3.80;3.37;;;23.20;79.60;;;;;;5105958;28;21056;-63
2022/08/03 04:52:44;;;;;;;3.33;3.13;;;23.40;77.70;;;;;;5089740;28;20447;-63
2022/08/03 04:55:12;;;;;;;10.00;3.10;;;23.60;76.10;;;;;;5089571;28;20528;-62
2022/08/03 04:57:40;;;;;;;3.50;3.23;;;23.80;74.50;;;;;;5102170;28;20473;-62
2022/08/03 05:00:09;;;;;;;4.10;3.00;;;23.90;73.10;;;;;;5089607;28;20552;-63
2022/08/03 05:02:36;;;;;;;2.90;2.60;;;24.00;71.90;;;;;;5094716;28;20510;-61
2022/08/03 05:05:03;;;;;;;3.90;3.50;;;24.10;70.60;;;;;;5104018;28;20458;-60
2022/08/03 05:07:30;;;;;;;5.20;3.60;;;24.20;69.70;;;;;;5092154;28;20541;-63
2022/08/03 05:09:58;;;;;;;4.53;3.53;;;24.20;68.70;;;;;;5089211;28;21060;-63
2022/08/03 05:12:25;;;;;;;4.07;3.40;;;24.20;67.90;;;;;;5092270;28;20715;-61
2022/08/03 05:14:54;;;;;;;3.43;3.13;;;24.20;67.70;;;;;;5089483;28;20490;-61
2022/08/03 05:17:21;;;;;;;5.53;3.40;;;24.10;67.60;;;;;;5089149;28;20447;-62
2022/08/03 05:19:49;;;;;;;3.33;3.03;;;24.10;67.50;;;;;;5084576;28;20465;-60
2022/08/03 05:22:16;;;;;;;3.50;3.20;;;24.10;67.20;;;;;;5092931;28;20529;-61
2022/08/03 05:24:43;;;;;;;3.20;2.83;;;24.20;66.80;;;;;;5095961;28;20526;-61
2022/08/03 05:27:16;;;;;;;3.70;3.40;;;24.40;66.40;;;;;;5078823;28;20534;-58
2022/08/03 05:29:43;;;;;;;3.80;3.50;;;24.50;65.90;;;;;;5075078;28;21042;-61
2022/08/03 05:32:12;;;;;;;3.10;2.80;;;24.60;65.30;;;;;;5075567;28;20485;-61
2022/08/03 05:34:39;;;;;;;3.47;3.00;;;24.80;64.70;;;;;;5076607;28;20884;-60
2022/08/03 05:37:07;;;;;;;3.60;3.20;;;24.90;64.10;;;;;;5079939;28;20449;-59
2022/08/03 05:39:34;;;;;;;4.40;3.23;;;24.90;63.60;;;;;;5096026;28;20465;-61
2022/08/03 05:42:02;;;;;;;3.33;3.03;;;25.00;63.20;;;;;;5084203;28;20442;-61
2022/08/03 05:44:30;;;;;;;3.40;3.10;;;25.10;63.00;;;;;;5075337;28;20453;-60
2022/08/03 05:46:58;;;;;;;5.00;3.43;;;25.10;62.80;;;;;;5075051;28;20803;-61
2022/08/03 05:49:26;;;;;;;3.60;3.30;;;25.20;62.80;;;;;;5075022;28;20483;-60
2022/08/03 05:51:54;;;;;;;5.53;4.30;;;25.20;62.60;;;;;;5075355;28;20864;-61
2022/08/03 05:54:21;;;;;;;6.93;3.37;;;25.30;62.50;;;;;;5087534;28;20536;-61
2022/08/03 05:56:48;;;;;;;3.37;3.10;;;25.30;62.40;;;;;;5095287;28;20761;-60
2022/08/03 05:59:15;;;;;;;3.03;2.83;;;25.20;62.50;;;;;;5095372;28;20496;-61
2022/08/03 06:01:43;;;;;;;3.57;2.97;;;25.30;62.40;;;;;;5095199;28;20452;-63
2022/08/03 06:04:10;;;;;;;2.83;2.63;;;25.30;62.20;;;;;;5094947;28;20479;-61
2022/08/03 06:06:38;;;;;;;3.50;3.03;;;25.30;62.10;;;;;;5093064;28;20522;-61
2022/08/03 06:09:06;;;;;;;3.80;3.50;;;25.30;61.80;;;;;;5092983;28;20561;-62
2022/08/03 06:11:33;;;;;;;10.20;3.83;;;25.40;61.60;;;;;;5094935;28;20531;-62
2022/08/03 06:14:00;;;;;;;10.03;4.27;;;25.30;61.20;;;;;;5091669;28;20489;-62
2022/08/03 06:16:27;;;;;;;8.60;3.20;;;25.30;61.00;;;;;;5077549;28;20795;-61
2022/08/03 06:18:55;;;;;;;9.40;3.83;;;25.30;60.80;;;;;;5094888;28;20881;-62
2022/08/03 06:21:22;;;;;;;5.83;3.00;;;25.10;60.90;;;;;;5094603;28;20496;-62
2022/08/03 06:23:50;;;;;;;8.10;3.70;;;25.10;60.80;;;;;;5094721;28;20959;-61
2022/08/03 06:26:18;;;;;;;12.00;3.70;;;25.10;60.70;;;;;;5094458;28;21003;-61
2022/08/03 06:28:45;;;;;;;17.23;4.43;;;25.00;60.60;;;;;;5094781;28;20567;-62
2022/08/03 06:31:12;;;;;;;39.87;5.90;;;24.90;60.50;;;;;;5092497;28;20622;-60
2022/08/03 06:33:39;;;;;;;12.30;3.80;;;25.00;60.50;;;;;;5094710;28;20477;-62
2022/08/03 06:36:07;;;;;;;17.40;4.40;;;25.00;60.30;;;;;;5081380;28;20676;-62
2022/08/03 06:38:34;;;;;;;11.47;3.60;;;25.10;60.10;;;;;;5074342;28;20561;-60
2022/08/03 06:41:03;;;;;;;28.10;5.13;;;25.20;59.90;;;;;;5074569;28;20453;-61
2022/08/03 06:43:30;;;;;;;16.73;4.63;;;25.30;59.70;;;;;;5081256;28;20482;-60
2022/08/03 06:45:57;;;;;;;11.30;3.90;;;25.40;59.40;;;;;;5078200;28;20498;-60
2022/08/03 06:48:24;;;;;;;4.03;3.63;;;25.50;59.20;;;;;;5074267;28;20530;-60
2022/08/03 06:50:51;;;;;;;10.70;3.80;;;25.70;58.90;;;;;;5086645;28;20478;-61
2022/08/03 06:53:18;;;;;;;5.73;2.97;;;25.80;58.50;;;;;;5094115;28;20541;-61
2022/08/03 06:55:46;;;;;;;5.13;2.73;;;26.00;58.20;;;;;;5093870;28;20542;-61
2022/08/03 06:58:14;;;;;;;3.23;2.93;;;26.00;57.90;;;;;;5094009;28;20514;-61
2022/08/03 07:00:41;;;;;;;11.00;3.60;;;26.10;57.80;;;;;;5075786;28;20554;-62
2022/08/03 07:03:09;;;;;;;5.00;3.10;;;26.10;57.70;;;;;;5074607;28;21056;-60
2022/08/03 07:05:36;;;;;;;6.00;2.73;;;26.10;57.60;;;;;;5073808;28;20534;-61
2022/08/03 07:08:03;;;;;;;3.97;2.83;;;26.20;57.60;;;;;;5073447;28;21023;-62
2022/08/03 07:10:31;;;;;;;3.07;2.87;;;26.30;57.50;;;;;;5080928;28;20930;-59
2022/08/03 07:12:58;;;;;;;3.23;2.87;;;26.40;57.30;;;;;;5075753;28;20445;-62
2022/08/03 07:15:26;;;;;;;3.70;3.10;;;26.50;57.00;;;;;;5073899;28;20535;-59
2022/08/03 07:17:54;;;;;;;4.60;3.37;;;26.70;56.70;;;;;;5076021;28;20451;-60
2022/08/03 07:20:21;;;;;;;3.00;2.70;;;26.90;56.30;;;;;;5073334;28;20465;-61
2022/08/03 07:22:48;;;;;;;4.90;3.30;;;27.00;56.00;;;;;;5073400;28;20529;-59
2022/08/03 07:25:15;;;;;;;4.00;3.67;;;27.00;55.80;;;;;;5074686;28;20455;-61
2022/08/03 07:27:44;;;;;;;3.70;3.00;;;27.10;55.60;;;;;;5081456;28;20473;-62
2022/08/03 07:30:11;;;;;;;4.93;3.50;;;27.10;55.50;;;;;;5067273;28;20513;-62
2022/08/03 07:32:40;;;;;;;6.07;3.30;;;27.10;55.50;;;;;;5078643;28;20448;-63
2022/08/03 07:35:09;;;;;;;3.80;2.90;;;27.10;55.40;;;;;;5093556;28;20488;-62
2022/08/03 07:37:36;;;;;;;6.90;3.27;;;27.20;55.30;;;;;;5073024;28;20450;-62
2022/08/03 07:40:06;;;;;;;4.20;3.90;;;27.30;55.20;;;;;;5073083;28;20473;-63
2022/08/03 07:42:33;;;;;;;4.10;2.80;;;27.40;55.10;;;;;;5073010;28;20980;-62
2022/08/03 07:45:00;;;;;;;3.57;2.80;;;27.50;54.90;;;;;;5073438;28;20862;-61
2022/08/03 07:47:29;;;;;;;3.90;2.70;;;27.60;54.80;;;;;;5073733;28;20496;-63
2022/08/03 07:49:58;;;;;;;5.13;2.97;;;27.70;54.50;;;;;;5093206;28;20520;-62
2022/08/03 07:55:10;;;;;;;7.50;2.83;;;27.90;54.10;;;;;;5093965;28;20531;-63
2022/08/03 07:57:37;;;;;;;3.60;3.10;;;27.90;53.90;;;;;;5094407;28;20549;-61
2022/08/03 08:00:14;;;;;;;3.07;2.80;;;28.10;53.80;;;;;;5094130;28;20501;-62
2022/08/03 08:02:41;;;;;;;2.73;2.50;;;28.20;53.30;;;;;;5093196;28;20437;-63
2022/08/03 08:05:11;;;;;;;3.60;3.03;;;28.20;53.00;;;;;;5092699;28;20533;-62
2022/08/03 08:07:39;;;;;;;4.10;2.63;;;28.30;53.10;;;;;;5092651;28;20473;-63
2022/08/03 08:10:08;;;;;;;3.27;3.00;;;28.40;52.80;;;;;;5092654;28;20973;-61
2022/08/03 08:12:36;;;;;;;3.73;2.47;;;28.60;52.60;;;;;;5093032;28;20861;-62
2022/08/03 08:15:03;;;;;;;2.60;2.40;;;28.70;52.40;;;;;;5092128;28;20821;-61
2022/08/03 08:17:30;;;;;;;2.90;2.60;;;28.90;52.20;;;;;;5075897;28;21032;-60
2022/08/03 08:19:57;;;;;;;5.03;2.80;;;29.00;51.80;;;;;;5081689;28;20491;-64
2022/08/03 08:22:26;;;;;;;2.67;2.13;;;29.00;51.40;;;;;;5061845;28;20529;-63
2022/08/03 08:24:53;;;;;;;4.37;2.57;;;29.10;51.30;;;;;;5070217;28;20544;-63
2022/08/03 08:27:20;;;;;;;3.47;2.57;;;29.20;51.10;;;;;;5078217;28;20480;-63
2022/08/03 08:29:48;;;;;;;3.20;2.27;;;29.30;50.70;;;;;;5074365;28;20481;-62
2022/08/03 08:32:15;;;;;;;2.63;2.43;;;29.50;50.30;;;;;;5076380;28;20538;-63
2022/08/03 08:34:42;;;;;;;2.80;2.20;;;29.60;50.00;;;;;;5072717;28;20494;-63
2022/08/03 08:37:09;;;;;;;3.70;2.43;;;29.70;49.80;;;;;;5072624;28;20540;-63
2022/08/03 08:39:38;;;;;;;2.53;2.23;;;29.80;49.70;;;;;;5081219;28;20468;-63
2022/08/03 08:42:05;;;;;;;3.20;2.90;;;29.80;49.40;;;;;;5075875;28;20453;-63
2022/08/03 08:44:32;;;;;;;2.87;2.13;;;29.90;49.30;;;;;;5072386;28;20890;-63
2022/08/03 08:47:03;;;;;;;6.63;1.97;;;30.00;49.20;;;;;;5072307;28;20455;-63
2022/08/03 08:49:32;;;;;;;3.20;2.00;;;30.10;48.90;;;;;;5072651;28;20477;-63
2022/08/03 08:52:01;;;;;;;2.80;1.93;;;30.20;48.60;;;;;;5074826;28;20519;-64
2022/08/03 08:54:29;;;;;;;2.57;1.60;;;30.20;48.20;;;;;;5073429;28;20533;-63
2022/08/03 08:57:02;;;;;;;4.83;2.07;;;30.20;48.00;;;;;;5077187;28;20529;-64
2022/08/03 08:59:32;;;;;;;1.77;1.50;;;30.20;47.80;;;;;;5077548;28;20549;-63
2022/08/03 09:01:59;;;;;;;4.20;1.80;;;30.30;47.70;;;;;;5077221;28;20531;-64
2022/08/03 09:04:28;;;;;;;7.30;2.07;;;30.40;47.40;;;;;;5076930;28;20843;-63
2022/08/03 09:06:55;;;;;;;10.10;2.70;;;30.50;47.00;;;;;;5076685;28;20552;-64
2022/08/03 09:09:22;;;;;;;4.20;1.70;;;30.60;46.60;;;;;;5076005;28;20556;-65
2022/08/03 09:11:50;;;;;;;5.40;1.97;;;30.60;46.40;;;;;;5076195;28;20454;-64
2022/08/03 09:14:19;;;;;;;3.20;1.70;;;30.60;46.20;;;;;;5076090;28;20535;-65
2022/08/03 09:17:00;;;;;;;4.03;2.33;;;30.60;46.20;;;;;;5076227;28;20476;-62
2022/08/03 09:19:29;;;;;;;3.17;1.97;;;30.60;46.20;;;;;;5075807;28;21039;-64
2022/08/03 09:22:13;;;;;;;3.23;1.73;;;30.70;46.20;;;;;;5075589;28;20937;-63
2022/08/03 09:24:55;;;;;;;3.13;1.70;;;30.80;45.50;;;;;;5075481;28;20520;-63
2022/08/03 09:27:23;;;;;;;2.83;1.50;;;30.80;45.20;;;;;;5075736;28;20429;-63
2022/08/03 09:29:53;;;;;;;3.23;1.87;;;30.80;45.00;;;;;;5075327;28;20648;-62
2022/08/03 09:32:22;;;;;;;4.20;1.70;;;30.90;44.90;;;;;;5075454;28;20976;-64
2022/08/03 09:34:52;;;;;;;2.70;1.70;;;31.00;44.70;;;;;;5075621;28;20502;-63
2022/08/03 09:37:24;;;;;;;4.20;2.30;;;31.00;44.50;;;;;;5075503;28;20472;-64
2022/08/03 09:39:51;;;;;;;3.60;2.10;;;31.00;44.60;;;;;;5075410;28;20526;-63
2022/08/03 09:42:21;;;;;;;2.90;1.77;;;31.00;44.60;;;;;;5074819;28;20537;-64
2022/08/03 09:44:51;;;;;;;3.40;2.00;;;31.10;44.40;;;;;;5075392;28;20535;-62
2022/08/03 09:47:28;;;;;;;2.90;1.73;;;31.20;44.10;;;;;;5075121;28;20898;-63
2022/08/03 09:50:01;;;;;;;4.60;1.70;;;31.40;43.80;;;;;;5080009;28;20493;-63
2022/08/03 09:52:33;;;;;;;2.03;1.87;;;31.50;43.50;;;;;;5077209;28;20452;-64
2022/08/03 09:55:01;;;;;;;3.43;1.67;;;31.70;43.30;;;;;;5075171;28;21000;-61
2022/08/03 09:57:30;;;;;;;3.23;1.70;;;31.60;43.20;;;;;;5074806;28;20452;-64
2022/08/03 10:00:10;;;;;;;2.73;1.83;;;31.70;43.30;;;;;;5074942;28;20473;-64
2022/08/03 10:02:39;;;;;;;2.20;2.00;;;31.80;43.20;;;;;;5075149;28;20430;-65
2022/08/03 10:05:08;;;;;;;2.50;2.23;;;32.00;42.90;;;;;;5074705;28;20544;-64
2022/08/03 10:07:43;;;;;;;3.40;2.13;;;32.00;42.60;;;;;;5074370;28;20968;-65
2022/08/03 10:10:11;;;;;;;2.00;1.53;;;32.10;42.60;;;;;;5074644;28;20481;-64
2022/08/03 10:12:38;;;;;;;3.60;1.80;;;32.30;42.50;;;;;;5074385;28;20456;-65
2022/08/03 10:15:09;;;;;;;4.20;2.60;;;32.30;42.20;;;;;;5074678;28;20957;-63
2022/08/03 10:17:37;;;;;;;2.70;2.20;;;32.30;42.30;;;;;;5074542;28;20485;-63
2022/08/03 10:20:05;;;;;;;5.03;2.63;;;32.20;42.30;;;;;;5074376;28;20557;-64
2022/08/03 10:22:35;;;;;;;2.63;1.63;;;32.20;42.30;;;;;;5074602;28;20442;-62
2022/08/03 10:25:06;;;;;;;4.13;1.90;;;32.30;42.20;;;;;;5075306;28;20481;-63
2022/08/03 10:27:37;;;;;;;2.47;1.90;;;32.40;42.10;;;;;;5075766;28;20510;-64
2022/08/03 10:30:09;;;;;;;3.23;2.10;;;32.50;41.80;;;;;;5075559;28;20496;-63
2022/08/03 10:32:41;;;;;;;3.00;2.60;;;32.50;41.40;;;;;;5076432;28;20775;-64
2022/08/03 10:35:12;;;;;;;3.03;2.13;;;32.40;41.30;;;;;;5075984;28;20786;-66
2022/08/03 10:37:42;;;;;;;3.60;2.43;;;32.30;41.40;;;;;;5076295;28;20438;-64
2022/08/03 10:40:14;;;;;;;2.60;2.27;;;32.20;41.40;;;;;;5075304;28;20469;-63
2022/08/03 10:42:43;;;;;;;4.50;3.53;;;32.30;41.90;;;;;;5074556;28;20909;-64
2022/08/03 10:45:18;;;;;;;4.50;2.53;;;32.20;41.30;;;;;;5074267;28;20447;-65
2022/08/03 10:47:47;;;;;;;2.27;2.00;;;32.10;41.40;;;;;;5076040;28;20430;-64
2022/08/03 10:50:15;;;;;;;3.20;2.17;;;32.20;41.50;;;;;;5076651;28;20518;-64
2022/08/03 10:52:55;;;;;;;5.53;2.37;;;32.40;41.50;;;;;;5078881;28;20450;-65
2022/08/03 10:58:49;;;;;;;5.03;2.30;;;32.60;41.00;;;;;;5074530;28;20758;-63
2022/08/03 11:01:19;;;;;;;3.30;2.17;;;32.70;40.80;;;;;;5082228;28;20443;-64
2022/08/03 11:04:19;;;;;;;2.67;2.10;;;32.60;40.80;;;;;;5081804;28;20530;-65
2022/08/03 11:06:48;;;;;;;2.20;2.03;;;32.50;40.90;;;;;;5074282;28;20550;-64
2022/08/03 11:09:17;;;;;;;4.63;2.43;;;32.40;40.80;;;;;;5074554;28;20482;-64
2022/08/03 11:11:45;;;;;;;3.50;2.10;;;32.50;40.80;;;;;;5075483;28;20475;-64
2022/08/03 11:14:14;;;;;;;6.07;2.07;;;32.50;40.90;;;;;;5074180;28;21015;-65
2022/08/03 11:16:45;;;;;;;2.50;2.30;;;32.50;41.00;;;;;;5074229;28;20859;-65
2022/08/03 11:19:16;;;;;;;3.93;2.47;;;32.80;40.60;;;;;;5073429;28;20475;-64
2022/08/03 11:21:56;;;;;;;2.90;2.27;;;32.90;40.40;;;;;;5074403;28;20482;-64
2022/08/03 11:24:57;;;;;;;2.93;2.57;;;33.10;40.20;;;;;;5073299;28;20490;-62
2022/08/03 11:27:26;;;;;;;3.90;2.37;;;33.20;40.20;;;;;;5069810;28;20543;-62
2022/08/03 11:29:58;;;;;;;2.67;2.47;;;33.20;40.80;;;;;;5072827;28;21049;-64
2022/08/03 11:33:00;;;;;;;3.00;2.63;;;33.50;40.10;;;;;;5073059;28;20534;-65
2022/08/03 11:35:29;;;;;;;3.30;2.60;;;33.70;39.60;;;;;;5072814;28;20490;-66
2022/08/03 11:38:08;;;;;;;4.00;1.80;;;33.90;39.30;;;;;;5072810;28;20534;-64
2022/08/03 11:40:37;;;;;;;2.20;2.00;;;34.00;38.80;;;;;;5072785;28;20887;-64
2022/08/03 11:43:07;;;;;;;3.20;1.90;;;33.90;38.40;;;;;;5073428;28;20538;-65
2022/08/03 11:45:34;;;;;;;4.20;2.20;;;33.80;38.30;;;;;;5073510;28;20454;-63
2022/08/03 11:48:14;;;;;;;2.90;2.20;;;33.60;38.40;;;;;;5073357;28;20872;-63
2022/08/03 11:50:44;;;;;;;4.60;2.20;;;33.50;38.50;;;;;;5073967;28;20466;-65
2022/08/03 11:53:16;;;;;;;3.13;1.67;;;33.50;38.50;;;;;;5073360;28;20443;-65
2022/08/03 11:55:47;;;;;;;3.03;1.80;;;33.60;38.60;;;;;;5073948;28;20436;-64
2022/08/03 11:58:22;;;;;;;3.50;2.10;;;33.80;38.00;;;;;;5073433;28;20431;-64
2022/08/03 12:00:51;;;;;;;3.20;1.80;;;34.30;37.00;;;;;;5073429;28;20524;-65
2022/08/03 12:03:20;;;;;;;2.80;1.57;;;34.90;35.70;;;;;;5072922;28;20482;-65
2022/08/03 12:05:50;;;;;;;3.87;1.87;;;35.50;34.80;;;;;;5077359;28;20439;-64
2022/08/03 12:08:18;;;;;;;3.50;1.83;;;36.00;34.10;;;;;;5074945;28;21018;-65
2022/08/03 12:10:51;;;;;;;3.73;1.57;;;36.60;33.40;;;;;;5073470;28;20841;-64
2022/08/03 12:13:20;;;;;;;1.67;1.53;;;36.90;32.70;;;;;;5073020;28;20585;-65
2022/08/03 12:15:52;;;;;;;2.60;1.50;;;36.90;32.60;;;;;;5081539;28;20447;-65
2022/08/03 12:18:22;;;;;;;2.37;1.60;;;36.90;32.40;;;;;;5093609;28;20426;-65
2022/08/03 12:20:51;;;;;;;2.23;2.03;;;36.80;32.40;;;;;;5093656;28;20934;-65
2022/08/03 12:23:19;;;;;;;1.73;1.50;;;36.90;32.50;;;;;;5084101;28;20443;-65
2022/08/03 12:25:48;;;;;;;1.70;1.60;;;37.10;32.30;;;;;;5074561;28;20451;-64
2022/08/03 12:28:18;;;;;;;5.20;1.70;;;37.30;31.90;;;;;;5080612;28;20538;-64
2022/08/03 12:30:48;;;;;;;2.67;1.80;;;37.30;31.50;;;;;;5075573;28;20463;-65
2022/08/03 12:33:20;;;;;;;1.77;1.67;;;37.10;31.60;;;;;;5076927;28;20989;-64
2022/08/03 12:35:51;;;;;;;2.33;1.97;;;36.80;31.90;;;;;;5077322;28;20546;-64
2022/08/03 12:38:22;;;;;;;6.20;2.10;;;36.70;32.40;;;;;;5076708;28;20864;-64
2022/08/03 12:41:00;;;;;;;3.53;2.03;;;36.40;33.60;;;;;;5076725;28;20434;-64
2022/08/03 12:43:27;;;;;;;3.53;1.90;;;36.20;33.30;;;;;;5090468;28;20849;-64
2022/08/03 12:46:11;;;;;;;3.00;2.13;;;35.90;33.70;;;;;;5098111;28;20941;-64
2022/08/03 12:49:00;;;;;;;3.50;2.20;;;35.40;34.20;;;;;;5081917;28;20494;-64
2022/08/03 12:51:30;;;;;;;2.17;1.57;;;34.70;34.80;;;;;;5077279;28;20474;-64
2022/08/03 12:53:58;;;;;;;3.20;2.33;;;34.30;35.50;;;;;;5078191;28;20534;-64
2022/08/03 12:56:26;;;;;;;2.60;1.90;;;34.10;36.00;;;;;;5088548;28;20790;-65
2022/08/03 12:58:53;;;;;;;5.70;1.73;;;34.00;36.20;;;;;;5076336;28;21026;-65
2022/08/03 13:01:23;;;;;;;2.33;1.80;;;34.00;36.20;;;;;;5076845;28;20466;-64
2022/08/03 13:03:53;;;;;;;3.00;2.70;;;33.90;36.20;;;;;;5076528;28;20447;-64
2022/08/03 13:06:21;;;;;;;2.90;2.37;;;34.00;36.50;;;;;;5077265;28;20450;-65
2022/08/03 13:09:01;;;;;;;2.40;2.20;;;34.00;36.70;;;;;;5080869;28;20586;-66
2022/08/03 13:11:28;;;;;;;4.13;2.40;;;34.30;36.90;;;;;;5094948;28;20472;-64